Bernard A — TCWN3 — position and weather

sailwx.info

Track history (hours):
 
Tides and Currents Weather Stations Pressure Air Temp Water Temp Dewpoint Dewpoint Depression Visibility Wind Speed Wind Dir Waves Ship Positions

Bernard A

Last reported at 2018-Apr-07 13:11 UTC. Time now 2018-Apr-21 04:11 UTC.
Position N 40°56' E 028°45'.
Warning: this ship's position is 13 days out of date.

Length 184 m; draft 7.3 m.

Type: Ship (hazmat cat A). MMSI: 271040008.

Date/timePositionNaut miles runAvg speedWind from/ knotsBaromVisibWave heightAir tempDewpointWater temp
2018-Apr-07 13:11N 40°56' E 028°45'512.2
2018-Apr-07 12:47N 40°56' E 028°51'311.6
2018-Apr-07 12:30N 40°57' E 028°55'153 8.1
2018-Apr-06 17:33N 41°46' E 032°09'010.7
2018-Apr-06 17:30N 41°46' E 032°09'16210.6
2018-Apr-06 02:10N 41°54' E 035°47'211.1
2018-Apr-06 02:00N 41°54' E 035°49'510.9
2018-Apr-06 01:30N 41°51' E 035°56'510.6
2018-Apr-06 01:00N 41°49' E 036°02'511.0
2018-Apr-06 00:30N 41°45' E 036°07'611.1
2018-Apr-06 00:00N 41°41' E 036°12'511.0
2018-Apr-05 23:30N 41°36' E 036°15'18 0.9
2018-Apr-05 04:22N 41°18' E 036°20'19 8.1
2018-Apr-05 02:03N 41°28' E 036°41'110.7
2018-Apr-05 01:58N 41°28' E 036°42'510.5
2018-Apr-05 01:30N 41°29' E 036°49'510.3
2018-Apr-05 01:00N 41°30' E 036°56'  
Track history (hours):
 
Tides and Currents Weather Stations Pressure Air Temp Water Temp Dewpoint Dewpoint Depression Visibility Wind Speed Wind Dir Waves Ship Positions

Bernard A

Last reported at 2018-Apr-07 13:11 UTC. Time now 2018-Apr-21 04:11 UTC.
Position N 40°56' E 028°45'.
Warning: this ship's position is 13 days out of date.

Length 184 m; draft 7.3 m.

Type: Ship (hazmat cat A). MMSI: 271040008.

Date/timePositionNaut miles runAvg speedWind from/ knotsBaromVisibWave heightAir tempDewpointWater temp
2018-Apr-07 13:11N 40°56' E 028°45'512.2
2018-Apr-07 12:47N 40°56' E 028°51'311.6
2018-Apr-07 12:30N 40°57' E 028°55'153 8.1
2018-Apr-06 17:33N 41°46' E 032°09'010.7
2018-Apr-06 17:30N 41°46' E 032°09'16210.6
2018-Apr-06 02:10N 41°54' E 035°47'211.1
2018-Apr-06 02:00N 41°54' E 035°49'510.9
2018-Apr-06 01:30N 41°51' E 035°56'510.6
2018-Apr-06 01:00N 41°49' E 036°02'511.0
2018-Apr-06 00:30N 41°45' E 036°07'611.1
2018-Apr-06 00:00N 41°41' E 036°12'511.0
2018-Apr-05 23:30N 41°36' E 036°15'18 0.9
2018-Apr-05 04:22N 41°18' E 036°20'19 8.1
2018-Apr-05 02:03N 41°28' E 036°41'110.7
2018-Apr-05 01:58N 41°28' E 036°42'510.5
2018-Apr-05 01:30N 41°29' E 036°49'510.3
2018-Apr-05 01:00N 41°30' E 036°56'  

Dump ship's entire track history